KRNT - Renton
Updated: Wed, 23-Oct-2019 6:53pm PDT

 Wind from N
Wind: N 8 mph , 13 km/h
Temperature: 52°F , 11°C
Dew Point: 45°F , 7°C
Humidity: 77%
Barometer: 30.46 inHg , 1031.5 hPa
Visibility: 9 miles , 14 km
2019/10/24 01:53 KRNT 240153Z 35007KT 9SM CLR 11/07 A3046 RMK AO2 SLP321 T01110072
KBFI - Seattle-Boeing
Updated: Wed, 23-Oct-2019 6:53pm PDT

 Wind from calm
Wind: Calm
Temperature: 52°F , 11°C
Dew Point: 45°F , 7°C
Humidity: 77%
Barometer: 30.47 inHg , 1031.8 hPa
Visibility: 10 miles , 16 km
Cloud details: 25000 ft
2019/10/24 01:53 KBFI 240153Z 00000KT 10SM BKN250 11/07 A3047 RMK AO2 SLP316 T01110072
 
KSEA - Seattle
Updated: Wed, 23-Oct-2019 6:53pm PDT

 Wind from N
Wind: N 8 mph , 13 km/h
Temperature: 50°F , 10°C
Wind Chill: 47°F , 8°C
Dew Point: 45°F , 7°C
Humidity: 82%
Barometer: 30.46 inHg , 1031.5 hPa
Visibility: 10 miles , 16 km
Cloud details: 14000 ft
25000 ft
2019/10/24 01:53 KSEA 240153Z 35007KT 10SM FEW140 BKN250 10/07 A3046 RMK AO2 SLP324 T01000067 $
KSMP - Stampede Pass
Updated: Wed, 23-Oct-2019 6:56pm PDT

 Wind from SW
Wind: SW 3 mph , 6 km/h
Temperature: 43°F , 6°C
Dew Point: 37°F , 3°C
Humidity: 81%
Barometer: 30.43 inHg , 1030.5 hPa
Visibility: 10 miles , 16 km
2019/10/24 01:56 KSMP 240156Z AUTO 22003KT 10SM CLR 06/03 A3043 RMK AO2 SLP321 T00610028